createdAt,value
2017-09-22T10:14:43.149Z,99.70
2017-09-22T10:17:10.154Z,99.90
2017-09-22T10:19:36.420Z,99.90
2017-09-22T10:22:03.445Z,99.90
2017-09-22T10:24:29.768Z,99.90
2017-09-22T10:26:56.038Z,99.90
2017-09-22T10:29:22.321Z,99.90
2017-09-22T10:31:48.601Z,99.90
2017-09-22T10:34:15.625Z,99.90
2017-09-22T10:36:41.905Z,99.90
2017-09-22T10:39:08.915Z,99.90
2017-09-22T10:41:35.949Z,99.90
2017-09-22T10:44:02.988Z,99.90
2017-09-22T10:46:29.261Z,99.90
2017-09-22T10:48:55.529Z,99.90
2017-09-22T10:51:21.827Z,99.00
2017-09-22T10:53:48.110Z,99.90
2017-09-22T10:56:14.366Z,99.80
2017-09-22T10:58:41.725Z,98.10
2017-09-22T11:01:07.985Z,98.60
2017-09-22T11:03:34.252Z,97.20
2017-09-22T11:06:00.542Z,96.30
2017-09-22T11:08:27.841Z,96.30
2017-09-22T11:10:54.853Z,96.30
2017-09-22T11:13:21.162Z,96.30
2017-09-22T11:15:47.463Z,96.20
2017-09-22T11:18:14.482Z,93.30
2017-09-22T11:20:40.777Z,93.30
2017-09-22T11:23:07.061Z,92.50
2017-09-22T11:25:34.069Z,93.90
2017-09-22T11:28:00.377Z,93.90
2017-09-22T11:30:26.679Z,91.60
2017-09-22T11:32:52.952Z,94.80
2017-09-22T11:35:19.232Z,95.50
2017-09-22T11:37:45.493Z,95.00
2017-09-22T11:40:11.770Z,92.90
2017-09-22T11:42:39.812Z,91.50
2017-09-22T11:45:06.091Z,91.50
2017-09-22T11:47:32.381Z,91.40
2017-09-22T11:49:58.681Z,93.70
2017-09-22T11:52:24.957Z,91.40
2017-09-22T11:54:51.974Z,92.60
2017-09-22T11:57:19.006Z,90.70
2017-09-22T11:59:45.269Z,90.70
2017-09-22T12:02:11.550Z,88.50
2017-09-22T12:04:37.854Z,88.30
2017-09-22T12:07:04.114Z,90.00
2017-09-22T12:09:30.381Z,88.90
2017-09-22T12:11:56.665Z,87.30
2017-09-22T12:14:22.943Z,87.80
2017-09-22T12:16:50.229Z,80.90
2017-09-22T12:19:16.504Z,82.80
2017-09-22T12:21:42.762Z,83.90
2017-09-22T12:24:09.769Z,87.00
2017-09-22T12:26:36.111Z,87.00
2017-09-22T12:29:02.376Z,87.10
2017-09-22T12:31:29.372Z,84.50
2017-09-22T12:33:55.652Z,84.50
2017-09-22T12:36:22.688Z,80.70
2017-09-22T12:38:49.694Z,82.30
2017-09-22T12:41:15.969Z,82.30
2017-09-22T12:43:42.980Z,85.50
2017-09-22T12:46:09.233Z,85.80
2017-09-22T12:48:36.297Z,76.10
2017-09-22T12:51:03.298Z,75.60
2017-09-22T12:53:29.557Z,75.60
2017-09-22T12:55:56.569Z,71.70
2017-09-22T12:58:22.822Z,71.70
2017-09-22T13:00:49.080Z,70.70
2017-09-22T13:03:15.365Z,71.50
2017-09-22T13:05:41.629Z,66.20
2017-09-22T13:08:09.687Z,67.10
2017-09-22T13:10:36.736Z,64.40
2017-09-22T13:13:03.758Z,62.20
2017-09-22T13:15:30.034Z,62.20
2017-09-22T13:17:56.338Z,66.70
2017-09-22T13:20:23.354Z,62.20
2017-09-22T13:22:49.637Z,62.20
2017-09-22T13:25:15.925Z,61.50
2017-09-22T13:27:42.192Z,61.70
2017-09-22T13:30:08.492Z,63.80
2017-09-22T13:32:36.413Z,60.40
2017-09-22T13:35:02.675Z,60.40
2017-09-22T13:37:30.625Z,58.10
2017-09-22T13:39:56.906Z,60.20
2017-09-22T13:42:23.901Z,60.10
2017-09-22T13:44:50.161Z,60.20
2017-09-22T13:47:16.436Z,61.50
2017-09-22T13:49:42.697Z,59.00
2017-09-22T13:52:08.953Z,59.80
2017-09-22T13:54:36.008Z,64.40
2017-09-22T13:57:03.005Z,66.60
2017-09-22T13:59:30.289Z,66.50
2017-09-22T14:01:56.569Z,65.00
2017-09-22T14:04:22.838Z,66.30
2017-09-22T14:06:49.107Z,65.40
2017-09-22T14:09:15.381Z,65.80
2017-09-22T14:11:41.653Z,62.30
2017-09-22T14:14:08.664Z,61.30
2017-09-22T14:16:34.965Z,61.20
2017-09-22T14:19:01.256Z,59.70
2017-09-22T14:21:28.249Z,56.30
2017-09-22T14:23:54.521Z,56.20
2017-09-22T14:26:21.517Z,54.20
2017-09-22T14:28:47.772Z,54.20
2017-09-22T14:31:14.064Z,53.30
2017-09-22T14:33:40.344Z,56.10
2017-09-22T14:36:06.642Z,56.00
2017-09-22T14:38:32.940Z,55.70
2017-09-22T14:40:59.204Z,53.80
2017-09-22T14:43:25.456Z,53.40
2017-09-22T14:45:51.725Z,52.90
2017-09-22T14:48:17.986Z,54.40
2017-09-22T14:50:44.236Z,52.70
2017-09-22T14:53:10.524Z,52.40
2017-09-22T14:55:36.789Z,52.00
2017-09-22T14:58:03.045Z,51.80
2017-09-22T15:00:30.069Z,51.80
2017-09-22T15:02:56.329Z,51.80
2017-09-22T15:05:23.333Z,52.20
2017-09-22T15:07:50.620Z,52.20
2017-09-22T15:10:17.608Z,52.40
2017-09-22T15:12:43.869Z,52.40
2017-09-22T15:15:10.151Z,51.10
2017-09-22T15:17:36.414Z,53.00
2017-09-22T15:20:02.693Z,52.20
2017-09-22T15:22:28.980Z,52.50
2017-09-22T15:24:55.245Z,50.30
2017-09-22T15:27:22.250Z,49.60
2017-09-22T15:29:48.543Z,49.60
2017-09-22T15:32:14.796Z,49.60
2017-09-22T15:34:41.045Z,50.90
2017-09-22T15:37:07.330Z,51.00
2017-09-22T15:39:33.596Z,50.50
2017-09-22T15:41:59.867Z,49.40
2017-09-22T15:44:26.152Z,50.90
2017-09-22T15:46:52.426Z,52.30
2017-09-22T15:49:18.683Z,51.80
2017-09-22T15:51:44.961Z,52.70
2017-09-22T15:54:11.222Z,53.80
2017-09-22T15:56:37.485Z,54.10
2017-09-22T15:59:03.781Z,54.20
2017-09-22T16:01:30.055Z,54.90
2017-09-22T16:03:56.314Z,54.90
2017-09-22T16:06:22.585Z,55.90
2017-09-22T16:08:48.841Z,57.50
2017-09-22T16:11:15.093Z,59.00
2017-09-22T16:13:42.137Z,63.10
2017-09-22T16:16:09.166Z,63.70
2017-09-22T16:18:35.438Z,63.60
2017-09-22T16:21:01.716Z,64.80
2017-09-22T16:23:27.998Z,70.30
2017-09-22T16:25:54.282Z,71.80
2017-09-22T16:28:20.581Z,73.40
2017-09-22T16:30:46.861Z,77.20
2017-09-22T16:33:13.853Z,79.60
2017-09-22T16:35:41.156Z,79.30
2017-09-22T16:38:08.153Z,81.50
2017-09-22T16:40:34.401Z,81.50
2017-09-22T16:43:00.680Z,82.00
2017-09-22T16:45:26.947Z,83.20
2017-09-22T16:47:53.200Z,86.00
2017-09-22T16:50:19.484Z,87.40
2017-09-22T16:52:45.737Z,90.80
2017-09-22T16:55:12.003Z,92.40
2017-09-22T16:57:39.037Z,99.90
2017-09-22T17:00:05.301Z,99.90
2017-09-22T17:02:31.560Z,99.90
2017-09-22T17:04:57.845Z,99.90
2017-09-22T17:07:24.853Z,99.90
2017-09-22T17:09:51.121Z,99.90
2017-09-22T17:12:18.142Z,99.90
2017-09-22T17:14:44.413Z,99.90
2017-09-22T17:17:10.679Z,99.90
2017-09-22T17:19:37.973Z,99.90
2017-09-22T17:22:05.001Z,99.90
2017-09-22T17:24:31.269Z,99.90
2017-09-22T17:26:57.550Z,99.90
2017-09-22T17:29:23.821Z,99.90
2017-09-22T17:31:50.097Z,99.90
2017-09-22T17:34:16.374Z,99.90
2017-09-22T17:36:42.643Z,99.90
2017-09-22T17:39:08.905Z,99.90
2017-09-22T17:41:35.205Z,99.90
2017-09-22T17:44:01.480Z,99.90
2017-09-22T17:46:28.484Z,99.90
2017-09-22T17:48:56.407Z,99.90
2017-09-22T17:51:22.864Z,99.90
2017-09-22T17:53:50.438Z,99.90
2017-09-22T17:56:16.717Z,99.90
2017-09-22T17:58:43.727Z,99.90
2017-09-22T18:01:11.001Z,99.90
2017-09-22T18:03:38.024Z,99.90
2017-09-22T18:06:04.305Z,99.90
2017-09-22T18:08:30.598Z,99.90
2017-09-22T18:10:56.905Z,99.90
2017-09-22T18:13:23.169Z,99.90
2017-09-22T18:15:50.177Z,99.90
2017-09-22T18:18:16.491Z,99.90
2017-09-22T18:20:42.788Z,99.90
2017-09-22T18:23:09.801Z,99.90
2017-09-22T18:25:36.100Z,99.90
2017-09-22T18:28:02.372Z,99.90
2017-09-22T18:30:29.396Z,99.90
2017-09-22T18:32:55.673Z,99.90
2017-09-22T18:35:21.930Z,99.90
2017-09-22T18:37:48.194Z,99.90
2017-09-22T18:40:14.464Z,99.90
2017-09-22T18:42:40.741Z,99.90
2017-09-22T18:45:07.050Z,99.90
2017-09-22T18:47:33.341Z,99.90
2017-09-22T18:49:59.658Z,99.90
2017-09-22T18:52:26.673Z,99.90
2017-09-22T18:54:53.953Z,99.90
2017-09-22T18:57:20.973Z,99.90
2017-09-22T18:59:47.252Z,99.90
2017-09-22T19:02:13.529Z,99.90
2017-09-22T19:04:39.796Z,99.90
2017-09-22T19:07:06.801Z,99.90
2017-09-22T19:09:33.105Z,99.90
2017-09-22T19:11:59.368Z,99.90
2017-09-22T19:14:25.646Z,99.90
2017-09-22T19:16:51.938Z,99.90
2017-09-22T19:19:18.185Z,99.90
2017-09-22T19:21:44.474Z,99.90
2017-09-22T19:24:10.776Z,99.90
2017-09-22T19:26:37.670Z,99.90
2017-09-22T19:29:03.930Z,99.90
2017-09-22T19:31:30.270Z,99.90
2017-09-22T19:33:56.574Z,99.90
2017-09-22T19:36:24.605Z,99.90
2017-09-22T19:38:50.901Z,99.90
2017-09-22T19:41:17.176Z,99.90
2017-09-22T19:43:43.501Z,99.90
2017-09-22T19:46:09.797Z,99.90
2017-09-22T19:48:36.107Z,99.90
2017-09-22T19:51:02.368Z,99.90
2017-09-22T19:53:28.646Z,99.90
2017-09-22T19:55:55.653Z,99.90
2017-09-22T19:58:21.962Z,99.90
2017-09-22T20:00:48.238Z,99.90
2017-09-22T20:03:14.529Z,99.90
2017-09-22T20:05:40.797Z,99.90
2017-09-22T20:08:07.076Z,99.90
2017-09-22T20:10:33.361Z,99.90
2017-09-22T20:13:00.366Z,99.90
2017-09-22T20:15:26.674Z,99.90
2017-09-22T20:17:52.949Z,99.90
2017-09-22T20:20:19.221Z,99.90
2017-09-22T20:22:45.525Z,99.90
2017-09-22T20:25:13.545Z,99.90
2017-09-22T20:27:40.835Z,99.90
2017-09-22T20:30:07.869Z,99.90
2017-09-22T20:32:34.146Z,99.90
2017-09-22T20:35:00.418Z,99.90
2017-09-22T20:37:26.701Z,99.90
2017-09-22T20:39:52.965Z,99.90
2017-09-22T20:42:19.220Z,99.90
2017-09-22T20:44:45.505Z,99.90
2017-09-22T20:47:11.782Z,99.90
2017-09-22T20:49:38.792Z,99.90
2017-09-22T20:52:05.082Z,99.90
2017-09-22T20:54:31.345Z,99.90
2017-09-22T20:56:57.613Z,99.90
2017-09-22T20:59:23.897Z,99.90
2017-09-22T21:01:50.157Z,99.90
2017-09-22T21:04:16.430Z,99.90
2017-09-22T21:06:42.726Z,99.90
2017-09-22T21:09:08.997Z,99.90
2017-09-22T21:11:35.274Z,99.90
2017-09-22T21:14:01.568Z,99.90
2017-09-22T21:16:27.834Z,99.90
2017-09-22T21:18:54.104Z,99.90
2017-09-22T21:21:20.397Z,99.90
2017-09-22T21:23:46.662Z,99.90
2017-09-22T21:26:12.924Z,99.90
2017-09-22T21:28:39.216Z,99.90
2017-09-22T21:31:05.493Z,99.90
2017-09-22T21:33:31.773Z,99.90
2017-09-22T21:35:58.059Z,99.90
2017-09-22T21:38:24.345Z,99.90
2017-09-22T21:40:50.620Z,99.90
2017-09-22T21:43:16.909Z,99.90
2017-09-22T21:45:43.180Z,99.90
2017-09-22T21:48:09.474Z,99.90
2017-09-22T21:50:35.788Z,99.90
2017-09-22T21:53:02.816Z,99.90
2017-09-22T21:55:29.834Z,99.90
2017-09-22T21:57:56.129Z,99.90
2017-09-22T22:00:22.393Z,99.90
2017-09-22T22:02:48.685Z,99.90
2017-09-22T22:05:21.033Z,99.90
2017-09-22T22:07:47.294Z,99.90
2017-09-22T22:10:13.557Z,99.90
2017-09-22T22:12:39.851Z,99.90
2017-09-22T22:15:06.153Z,99.90
2017-09-22T22:17:32.421Z,99.90
2017-09-22T22:19:58.705Z,99.90
2017-09-22T22:22:24.975Z,99.90
2017-09-22T22:24:51.237Z,99.90
2017-09-22T22:27:18.269Z,99.90
2017-09-22T22:29:44.525Z,99.90
2017-09-22T22:32:11.554Z,99.90
2017-09-22T22:34:38.586Z,99.90
2017-09-22T22:37:04.895Z,99.90
2017-09-22T22:39:31.184Z,99.90
2017-09-22T22:41:57.478Z,99.90
2017-09-22T22:44:23.745Z,99.90
2017-09-22T22:46:50.017Z,99.90
2017-09-22T22:49:16.423Z,99.90
2017-09-22T22:51:42.729Z,99.90
2017-09-22T22:54:09.003Z,99.90
2017-09-22T22:56:35.300Z,99.90
2017-09-22T22:59:01.573Z,99.90
2017-09-22T23:01:27.866Z,99.90
2017-09-22T23:03:54.168Z,99.90
2017-09-22T23:06:20.439Z,99.90
2017-09-22T23:08:46.719Z,99.90
2017-09-22T23:11:13.765Z,99.90
2017-09-22T23:13:40.785Z,99.90
2017-09-22T23:16:08.060Z,99.90
2017-09-22T23:18:35.126Z,99.90
2017-09-22T23:21:01.397Z,99.90
2017-09-22T23:23:27.673Z,99.90
2017-09-22T23:25:54.741Z,99.90
2017-09-22T23:28:21.020Z,99.90
2017-09-22T23:30:47.281Z,99.90
2017-09-22T23:33:14.310Z,99.90
2017-09-22T23:35:40.582Z,99.90
2017-09-22T23:38:06.882Z,99.90
2017-09-22T23:40:33.929Z,99.90
2017-09-22T23:43:00.943Z,99.90
2017-09-22T23:45:27.221Z,99.90
2017-09-22T23:47:53.514Z,99.90
2017-09-22T23:50:19.777Z,99.90
2017-09-22T23:52:46.066Z,99.90
2017-09-22T23:55:12.365Z,99.90
2017-09-22T23:57:38.658Z,99.90
